M/T Havva Ana — V7RE3 — position and weather

sailwx.info

Track history (hours):
 
Tides and Currents Weather Stations Pressure Air Temp Water Temp Dewpoint Dewpoint Depression Visibility Wind Speed Wind Dir Waves Ship Positions

M/T Havva Ana

Last reported at 2014-Jul-26 15:12 UTC. Time now 2014-Jul-26 19:12 UTC.
Position N 37°32' E 024°22'.

Length 124 m; draft 6.6 m.

Type: Tanker. MMSI: 538003488.

Date/timePositionNaut miles runAvg speedWind from/ knotsBaromVisibWave heightAir tempDewpointWater temp
2014-Jul-26 15:12N 37°32' E 024°22'912.4
2014-Jul-26 14:30N 37°40' E 024°28'28411.9
2014-Jul-25 14:31N 40°56' E 028°53'358 7.3
2014-Jul-23 13:33N 46°35' E 031°35'1211.4
2014-Jul-23 12:29N 46°37' E 031°52'8 9.2
2014-Jul-23 11:33N 46°45' E 031°55'1 1.3
2014-Jul-23 10:32N 46°46' E 031°57'0 0.0
2014-Jul-23 09:32N 46°46' E 031°57'0 0.0
2014-Jul-23 08:29N 46°46' E 031°57'0 0.0
2014-Jul-23 07:32N 46°46' E 031°57'0 0.0
2014-Jul-23 06:32N 46°46' E 031°57'0 0.0
2014-Jul-23 05:32N 46°46' E 031°57'0 0.0
2014-Jul-23 04:29N 46°46' E 031°57'0 0.0
2014-Jul-23 03:32N 46°46' E 031°57'0 0.0
2014-Jul-23 02:32N 46°46' E 031°57'0 0.0
2014-Jul-23 01:32N 46°46' E 031°57'0 0.0
2014-Jul-23 00:26N 46°46' E 031°57'0 0.0
2014-Jul-22 23:26N 46°46' E 031°57'0 0.0
2014-Jul-22 22:32N 46°46' E 031°57'0 0.0
2014-Jul-22 21:32N 46°46' E 031°57'0 0.0
2014-Jul-22 20:32N 46°46' E 031°57'0 0.0
2014-Jul-22 19:32N 46°46' E 031°57'0 0.0
2014-Jul-22 18:32N 46°46' E 031°57'0 0.0
2014-Jul-22 17:32N 46°46' E 031°57'0 0.0
2014-Jul-22 16:32N 46°46' E 031°57'0 0.0
2014-Jul-22 15:32N 46°46' E 031°57'0 0.0
2014-Jul-22 14:32N 46°46' E 031°57'0 0.0
2014-Jul-22 13:32N 46°46' E 031°57'0 0.0
2014-Jul-22 12:32N 46°46' E 031°57'0 0.0
2014-Jul-22 11:32N 46°46' E 031°57'0 0.0
2014-Jul-22 10:32N 46°46' E 031°57'0 0.0
2014-Jul-22 09:32N 46°46' E 031°57'0 0.0
2014-Jul-22 08:32N 46°46' E 031°57'0 0.0
2014-Jul-22 07:32N 46°46' E 031°57'0 0.0
2014-Jul-22 06:32N 46°46' E 031°57'0 0.0
2014-Jul-22 05:32N 46°46' E 031°57'0 0.0
2014-Jul-22 04:32N 46°46' E 031°57'0 0.0
2014-Jul-22 03:33N 46°46' E 031°57'4 3.7
2014-Jul-22 02:33N 46°43' E 031°56'1010.3
2014-Jul-22 01:33N 46°36' E 031°45'1210.3
2014-Jul-22 00:22N 46°35' E 031°27'1012.6
2014-Jul-21 23:34N 46°35' E 031°12'1111.0
2014-Jul-21 22:33N 46°32' E 030°57'13 4.6
2014-Jul-21 19:48N 46°20' E 031°03'0 0.1
2014-Jul-21 19:33N 46°20' E 031°03'5 5.3
2014-Jul-21 18:33N 46°16' E 030°59'1312.9
2014-Jul-21 17:32N 46°06' E 031°12'7712.7
2014-Jul-21 11:29N 45°10' E 032°26'1112.4
2014-Jul-21 10:33N 45°01' E 032°37'1312.6
2014-Jul-21 09:33N 44°51' E 032°48'6412.1
2014-Jul-21 04:16N 44°17' E 034°04'912.6
2014-Jul-21 03:32N 44°17' E 034°17'1212.4
2014-Jul-21 02:33N 44°18' E 034°34'1312.6
2014-Jul-21 01:32N 44°18' E 034°52'1512.9
2014-Jul-21 00:23N 44°19' E 035°13'  
2014-Jul-18 00:25N 44°26' E 035°40'1313.5
2014-Jul-17 23:26N 44°18' E 035°25'1213.2
2014-Jul-17 22:30N 44°11' E 035°10'1212.8
2014-Jul-17 21:33N 44°05' E 034°56'1312.7
2014-Jul-17 20:33N 43°58' E 034°41'1912.8
2014-Jul-17 19:05N 43°47' E 034°20'  
Track history (hours):
 
Tides and Currents Weather Stations Pressure Air Temp Water Temp Dewpoint Dewpoint Depression Visibility Wind Speed Wind Dir Waves Ship Positions

M/T Havva Ana

Last reported at 2014-Jul-26 15:12 UTC. Time now 2014-Jul-26 19:12 UTC.
Position N 37°32' E 024°22'.

Length 124 m; draft 6.6 m.

Type: Tanker. MMSI: 538003488.

Date/timePositionNaut miles runAvg speedWind from/ knotsBaromVisibWave heightAir tempDewpointWater temp
2014-Jul-26 15:12N 37°32' E 024°22'912.4
2014-Jul-26 14:30N 37°40' E 024°28'28411.9
2014-Jul-25 14:31N 40°56' E 028°53'358 7.3
2014-Jul-23 13:33N 46°35' E 031°35'1211.4
2014-Jul-23 12:29N 46°37' E 031°52'8 9.2
2014-Jul-23 11:33N 46°45' E 031°55'1 1.3
2014-Jul-23 10:32N 46°46' E 031°57'0 0.0
2014-Jul-23 09:32N 46°46' E 031°57'0 0.0
2014-Jul-23 08:29N 46°46' E 031°57'0 0.0
2014-Jul-23 07:32N 46°46' E 031°57'0 0.0
2014-Jul-23 06:32N 46°46' E 031°57'0 0.0
2014-Jul-23 05:32N 46°46' E 031°57'0 0.0
2014-Jul-23 04:29N 46°46' E 031°57'0 0.0
2014-Jul-23 03:32N 46°46' E 031°57'0 0.0
2014-Jul-23 02:32N 46°46' E 031°57'0 0.0
2014-Jul-23 01:32N 46°46' E 031°57'0 0.0
2014-Jul-23 00:26N 46°46' E 031°57'0 0.0
2014-Jul-22 23:26N 46°46' E 031°57'0 0.0
2014-Jul-22 22:32N 46°46' E 031°57'0 0.0
2014-Jul-22 21:32N 46°46' E 031°57'0 0.0
2014-Jul-22 20:32N 46°46' E 031°57'0 0.0
2014-Jul-22 19:32N 46°46' E 031°57'0 0.0
2014-Jul-22 18:32N 46°46' E 031°57'0 0.0
2014-Jul-22 17:32N 46°46' E 031°57'0 0.0
2014-Jul-22 16:32N 46°46' E 031°57'0 0.0
2014-Jul-22 15:32N 46°46' E 031°57'0 0.0
2014-Jul-22 14:32N 46°46' E 031°57'0 0.0
2014-Jul-22 13:32N 46°46' E 031°57'0 0.0
2014-Jul-22 12:32N 46°46' E 031°57'0 0.0
2014-Jul-22 11:32N 46°46' E 031°57'0 0.0
2014-Jul-22 10:32N 46°46' E 031°57'0 0.0
2014-Jul-22 09:32N 46°46' E 031°57'0 0.0
2014-Jul-22 08:32N 46°46' E 031°57'0 0.0
2014-Jul-22 07:32N 46°46' E 031°57'0 0.0
2014-Jul-22 06:32N 46°46' E 031°57'0 0.0
2014-Jul-22 05:32N 46°46' E 031°57'0 0.0
2014-Jul-22 04:32N 46°46' E 031°57'0 0.0
2014-Jul-22 03:33N 46°46' E 031°57'4 3.7
2014-Jul-22 02:33N 46°43' E 031°56'1010.3
2014-Jul-22 01:33N 46°36' E 031°45'1210.3
2014-Jul-22 00:22N 46°35' E 031°27'1012.6
2014-Jul-21 23:34N 46°35' E 031°12'1111.0
2014-Jul-21 22:33N 46°32' E 030°57'13 4.6
2014-Jul-21 19:48N 46°20' E 031°03'0 0.1
2014-Jul-21 19:33N 46°20' E 031°03'5 5.3
2014-Jul-21 18:33N 46°16' E 030°59'1312.9
2014-Jul-21 17:32N 46°06' E 031°12'7712.7
2014-Jul-21 11:29N 45°10' E 032°26'1112.4
2014-Jul-21 10:33N 45°01' E 032°37'1312.6
2014-Jul-21 09:33N 44°51' E 032°48'6412.1
2014-Jul-21 04:16N 44°17' E 034°04'912.6
2014-Jul-21 03:32N 44°17' E 034°17'1212.4
2014-Jul-21 02:33N 44°18' E 034°34'1312.6
2014-Jul-21 01:32N 44°18' E 034°52'1512.9
2014-Jul-21 00:23N 44°19' E 035°13'  
2014-Jul-18 00:25N 44°26' E 035°40'1313.5
2014-Jul-17 23:26N 44°18' E 035°25'1213.2
2014-Jul-17 22:30N 44°11' E 035°10'1212.8
2014-Jul-17 21:33N 44°05' E 034°56'1312.7
2014-Jul-17 20:33N 43°58' E 034°41'1912.8
2014-Jul-17 19:05N 43°47' E 034°20'  

Dump ship's entire track history